createdAt,value
2019-01-16T00:00:43.758Z,1002.27
2019-01-16T00:01:43.912Z,1002.25
2019-01-16T00:02:44.045Z,1002.33
2019-01-16T00:03:44.228Z,1002.27
2019-01-16T00:04:44.355Z,1002.24
2019-01-16T00:05:44.513Z,1002.19
2019-01-16T00:06:44.666Z,1002.24
2019-01-16T00:07:44.795Z,1002.06
2019-01-16T00:08:44.956Z,1002.18
2019-01-16T00:09:45.110Z,1002.22
2019-01-16T00:10:45.294Z,1002.22
2019-01-16T00:11:45.539Z,1002.11
2019-01-16T00:12:45.568Z,1002.15
2019-01-16T00:13:45.715Z,1002.15
2019-01-16T00:14:45.892Z,1002.17
2019-01-16T00:15:46.039Z,1002.12
2019-01-16T00:16:46.202Z,1002.21
2019-01-16T00:17:46.350Z,1002.09
2019-01-16T00:18:46.499Z,1002.33
2019-01-16T00:19:46.698Z,1002.18
2019-01-16T00:20:46.897Z,1002.18
2019-01-16T00:21:46.998Z,1002.16
2019-01-16T00:22:47.113Z,1002.16
2019-01-16T00:23:47.265Z,1002.24
2019-01-16T00:24:47.441Z,1002.16
2019-01-16T00:25:47.572Z,1002.17
2019-01-16T00:26:47.745Z,1002.15
2019-01-16T00:27:47.895Z,1002.20
2019-01-16T00:28:48.188Z,1002.29
2019-01-16T00:29:48.224Z,1002.10
2019-01-16T00:30:48.361Z,1002.22
2019-01-16T00:31:48.517Z,1002.25
2019-01-16T00:32:48.667Z,1002.18
2019-01-16T00:33:48.817Z,1002.14
2019-01-16T00:34:48.992Z,1002.21
2019-01-16T00:35:49.354Z,1002.36
2019-01-16T00:36:49.373Z,1002.29
2019-01-16T00:37:49.438Z,1002.52
2019-01-16T00:38:49.600Z,1002.32
2019-01-16T00:39:49.769Z,1002.22
2019-01-16T00:40:49.906Z,1002.43
2019-01-16T00:41:50.078Z,1002.31
2019-01-16T00:42:50.216Z,1002.30
2019-01-16T00:43:50.386Z,1002.38
2019-01-16T00:44:50.654Z,1002.27
2019-01-16T00:45:50.683Z,1002.23
2019-01-16T00:46:50.860Z,1002.31
2019-01-16T00:47:51.022Z,1002.31
2019-01-16T00:48:51.143Z,1002.31
2019-01-16T00:49:51.347Z,1002.48
2019-01-16T00:50:51.467Z,1002.33
2019-01-16T00:51:51.634Z,1002.42
2019-01-16T00:52:51.823Z,1002.32
2019-01-16T00:53:51.963Z,1002.35
2019-01-16T00:54:52.132Z,1002.37
2019-01-16T00:55:52.287Z,1002.39
2019-01-16T00:56:52.452Z,1002.39
2019-01-16T00:57:52.614Z,1002.45
2019-01-16T00:58:52.781Z,1002.39
2019-01-16T00:59:52.919Z,1002.41
2019-01-16T01:00:53.076Z,1002.38
2019-01-16T01:01:53.321Z,1002.34
2019-01-16T01:02:53.414Z,1002.41
2019-01-16T01:03:53.549Z,1002.47
2019-01-16T01:04:53.721Z,1002.46
2019-01-16T01:05:53.841Z,1002.42
2019-01-16T01:06:54.027Z,1002.53
2019-01-16T01:07:54.181Z,1002.45
2019-01-16T01:08:54.317Z,1002.45
2019-01-16T01:09:54.614Z,1002.51
2019-01-16T01:10:54.603Z,1002.47
2019-01-16T01:11:54.770Z,1002.60
2019-01-16T01:12:54.949Z,1002.55
2019-01-16T01:13:55.081Z,1002.50
2019-01-16T01:14:55.277Z,1002.57
2019-01-16T01:15:55.393Z,1002.60
2019-01-16T01:16:55.534Z,1002.63
2019-01-16T01:17:56.018Z,1002.64
2019-01-16T01:18:55.836Z,1002.68
2019-01-16T01:19:56.019Z,1002.68
2019-01-16T01:20:56.137Z,1002.68
2019-01-16T01:21:56.276Z,1002.67
2019-01-16T01:22:56.467Z,1002.66
2019-01-16T01:23:56.611Z,1002.68
2019-01-16T01:24:56.803Z,1002.75
2019-01-16T01:25:56.972Z,1002.66
2019-01-16T01:26:57.052Z,1002.70
2019-01-16T01:27:57.218Z,1002.67
2019-01-16T01:28:57.367Z,1002.76
2019-01-16T01:29:57.565Z,1002.84
2019-01-16T01:30:57.683Z,1002.83
2019-01-16T01:31:57.842Z,1002.87
2019-01-16T01:32:58.017Z,1002.85
2019-01-16T01:33:58.187Z,1003.01
2019-01-16T01:34:58.357Z,1002.90
2019-01-16T01:35:58.457Z,1002.90
2019-01-16T01:36:58.611Z,1002.79
2019-01-16T01:37:58.781Z,1002.89
2019-01-16T01:38:58.914Z,1002.86
2019-01-16T01:39:59.091Z,1002.88
2019-01-16T01:40:59.223Z,1002.90
2019-01-16T01:41:59.382Z,1002.95
2019-01-16T01:42:59.646Z,1002.91
2019-01-16T01:43:59.660Z,1003.00
2019-01-16T01:44:59.837Z,1002.91
2019-01-16T01:46:00.008Z,1002.96
2019-01-16T01:47:00.141Z,1002.91
2019-01-16T01:48:00.319Z,1002.95
2019-01-16T01:49:00.449Z,1002.97
2019-01-16T01:50:00.590Z,1003.05
2019-01-16T01:51:00.877Z,1003.00
2019-01-16T01:52:00.915Z,1003.00
2019-01-16T01:53:01.076Z,1002.97
2019-01-16T01:54:01.219Z,1003.02
2019-01-16T01:55:01.358Z,1003.03
2019-01-16T01:56:01.558Z,1003.02
2019-01-16T01:57:01.708Z,1002.98
2019-01-16T01:58:01.878Z,1003.18
2019-01-16T01:59:02.077Z,1003.05
2019-01-16T02:00:02.146Z,1002.99
2019-01-16T02:01:02.328Z,1002.95
2019-01-16T02:02:02.463Z,1003.02
2019-01-16T02:03:02.632Z,1003.11
2019-01-16T02:04:02.769Z,1003.09
2019-01-16T02:05:02.923Z,1003.03
2019-01-16T02:06:03.107Z,1003.18
2019-01-16T02:07:03.271Z,1003.12
2019-01-16T02:08:03.373Z,1003.11
2019-01-16T02:09:03.515Z,1003.13
2019-01-16T02:10:03.671Z,1003.15
2019-01-16T02:11:03.845Z,1003.14
2019-01-16T02:12:03.977Z,1003.16
2019-01-16T02:13:04.363Z,1003.07
2019-01-16T02:14:04.285Z,1003.17
2019-01-16T02:15:10.905Z,1003.21
2019-01-16T02:16:04.729Z,1003.22
2019-01-16T02:17:04.759Z,1003.20
2019-01-16T02:18:04.918Z,1003.23
2019-01-16T02:19:05.151Z,1003.16
2019-01-16T02:20:05.312Z,1003.35
2019-01-16T02:21:05.508Z,1003.26
2019-01-16T02:22:05.627Z,1003.32
2019-01-16T02:23:05.816Z,1003.28
2019-01-16T02:24:06.039Z,1003.29
2019-01-16T02:25:06.104Z,1003.29
2019-01-16T02:26:06.288Z,1003.24
2019-01-16T02:27:06.401Z,1003.27
2019-01-16T02:28:06.575Z,1003.29
2019-01-16T02:29:06.694Z,1003.27
2019-01-16T02:30:06.862Z,1003.31
2019-01-16T02:31:07.057Z,1003.31
2019-01-16T02:32:07.244Z,1003.42
2019-01-16T02:33:07.338Z,1003.28
2019-01-16T02:34:07.454Z,1003.37
2019-01-16T02:35:07.621Z,1003.34
2019-01-16T02:36:07.821Z,1003.30
2019-01-16T02:37:07.940Z,1003.34
2019-01-16T02:38:08.105Z,1003.32
2019-01-16T02:39:08.248Z,1003.44
2019-01-16T02:40:08.446Z,1003.29
2019-01-16T02:41:08.573Z,1003.35
2019-01-16T02:42:14.388Z,1003.28
2019-01-16T02:43:08.868Z,1003.40
2019-01-16T02:44:09.005Z,1003.37
2019-01-16T02:45:09.157Z,1003.38
2019-01-16T02:46:09.325Z,1003.30
2019-01-16T02:47:09.441Z,1003.32
2019-01-16T02:48:09.656Z,1003.48
2019-01-16T02:49:09.773Z,1003.38
2019-01-16T02:50:09.928Z,1003.36
2019-01-16T02:51:10.107Z,1003.34
2019-01-16T02:52:10.233Z,1003.48
2019-01-16T02:53:10.383Z,1003.40
2019-01-16T02:54:10.538Z,1003.45
2019-01-16T02:55:10.699Z,1003.46
2019-01-16T02:56:10.913Z,1003.49
2019-01-16T02:57:11.092Z,1003.41
2019-01-16T02:58:11.158Z,1003.49
2019-01-16T02:59:11.323Z,1003.38
2019-01-16T03:00:11.479Z,1003.57
2019-01-16T03:01:11.664Z,1003.54
2019-01-16T03:02:11.782Z,1003.48
2019-01-16T03:03:11.922Z,1003.47
2019-01-16T03:04:12.105Z,1003.46
2019-01-16T03:05:12.334Z,1003.55
2019-01-16T03:06:12.426Z,1003.47
2019-01-16T03:07:12.536Z,1003.48
2019-01-16T03:08:12.691Z,1003.46
2019-01-16T03:09:12.886Z,1003.52
2019-01-16T03:10:13.018Z,1003.50
2019-01-16T03:11:13.202Z,1003.50
2019-01-16T03:12:13.320Z,1003.51
2019-01-16T03:13:13.551Z,1003.48
2019-01-16T03:14:13.630Z,1003.48
2019-01-16T03:15:13.783Z,1003.52
2019-01-16T03:16:13.965Z,1003.59
2019-01-16T03:17:14.084Z,1003.50
2019-01-16T03:18:14.255Z,1003.46
2019-01-16T03:19:14.415Z,1003.49
2019-01-16T03:20:14.536Z,1003.69
2019-01-16T03:21:14.778Z,1003.57
2019-01-16T03:22:14.840Z,1003.60
2019-01-16T03:23:15.016Z,1003.58
2019-01-16T03:24:15.213Z,1003.52
2019-01-16T03:25:15.286Z,1003.53
2019-01-16T03:26:15.489Z,1003.57
2019-01-16T03:27:15.622Z,1003.54
2019-01-16T03:28:15.780Z,1003.57
2019-01-16T03:29:15.999Z,1003.51
2019-01-16T03:30:16.110Z,1003.56
2019-01-16T03:31:16.290Z,1003.52
2019-01-16T03:32:16.418Z,1003.57
2019-01-16T03:33:16.562Z,1003.56
2019-01-16T03:34:16.731Z,1003.57
2019-01-16T03:35:16.866Z,1003.52
2019-01-16T03:36:17.039Z,1003.51
2019-01-16T03:37:17.171Z,1003.56
2019-01-16T03:38:17.472Z,1003.55
2019-01-16T03:39:17.499Z,1003.51
2019-01-16T03:40:17.634Z,1003.53
2019-01-16T03:41:17.787Z,1003.54
2019-01-16T03:42:17.930Z,1003.51
2019-01-16T03:43:18.122Z,1003.50
2019-01-16T03:44:18.256Z,1003.57
2019-01-16T03:45:18.396Z,1003.56
2019-01-16T03:46:18.636Z,1003.54
2019-01-16T03:47:18.713Z,1003.51
2019-01-16T03:48:18.859Z,1003.55
2019-01-16T03:49:19.032Z,1003.57
2019-01-16T03:50:19.158Z,1003.47
2019-01-16T03:51:19.328Z,1003.56
2019-01-16T03:52:19.448Z,1003.52
2019-01-16T03:53:19.850Z,1003.48
2019-01-16T03:54:20.124Z,1003.54
2019-01-16T03:55:20.148Z,1003.49
2019-01-16T03:56:20.318Z,1003.50
2019-01-16T03:57:20.485Z,1003.52
2019-01-16T03:58:20.605Z,1003.53
2019-01-16T03:59:20.790Z,1003.46
2019-01-16T04:00:20.942Z,1003.50
2019-01-16T04:01:21.096Z,1003.46
2019-01-16T04:02:21.338Z,1003.54
2019-01-16T04:03:21.397Z,1003.46
2019-01-16T04:04:21.560Z,1003.47
2019-01-16T04:05:21.720Z,1003.42
2019-01-16T04:06:21.873Z,1003.46
2019-01-16T04:07:22.062Z,1003.44
2019-01-16T04:08:22.198Z,1003.44
2019-01-16T04:09:22.369Z,1003.50
2019-01-16T04:10:22.511Z,1003.48
2019-01-16T04:11:22.743Z,1003.43
2019-01-16T04:12:22.837Z,1003.46
2019-01-16T04:13:22.968Z,1003.33
2019-01-16T04:14:23.164Z,1003.35
2019-01-16T04:15:23.258Z,1003.42
2019-01-16T04:16:23.428Z,1003.38
2019-01-16T04:17:24.968Z,1003.35
2019-01-16T04:18:23.755Z,1003.32
2019-01-16T04:19:24.029Z,1003.28
2019-01-16T04:20:24.038Z,1003.43
2019-01-16T04:21:24.201Z,1003.38
2019-01-16T04:22:24.373Z,1003.33
2019-01-16T04:23:24.509Z,1003.32
2019-01-16T04:24:24.702Z,1003.31
2019-01-16T04:25:24.826Z,1003.33
2019-01-16T04:26:24.967Z,1003.32
2019-01-16T04:27:25.246Z,1003.34
2019-01-16T04:28:25.282Z,1003.35
2019-01-16T04:29:25.451Z,1003.26
2019-01-16T04:30:25.595Z,1003.34
2019-01-16T04:31:25.720Z,1003.40
2019-01-16T04:32:25.921Z,1003.32
2019-01-16T04:33:26.045Z,1003.35
2019-01-16T04:34:26.212Z,1003.22
2019-01-16T04:35:26.406Z,1003.24
2019-01-16T04:36:26.476Z,1003.32
2019-01-16T04:37:26.674Z,1003.25
2019-01-16T04:38:26.802Z,1003.32
2019-01-16T04:39:26.970Z,1003.32
2019-01-16T04:40:27.102Z,1003.28
2019-01-16T04:41:27.254Z,1003.20
2019-01-16T04:42:27.444Z,1003.30
2019-01-16T04:43:27.586Z,1003.27
2019-01-16T04:44:27.761Z,1003.33
2019-01-16T04:45:27.878Z,1003.30
2019-01-16T04:46:28.030Z,1003.31
2019-01-16T04:47:28.217Z,1003.28
2019-01-16T04:48:28.336Z,1003.29
2019-01-16T04:49:30.472Z,1003.31
2019-01-16T04:50:28.645Z,1003.35
2019-01-16T04:51:28.838Z,1003.25
2019-01-16T04:52:29.126Z,1003.30
2019-01-16T04:53:29.087Z,1003.30
2019-01-16T04:54:29.258Z,1003.23
2019-01-16T04:55:29.408Z,1003.27
2019-01-16T04:56:29.563Z,1003.32
2019-01-16T04:57:29.743Z,1003.31
2019-01-16T04:58:29.871Z,1003.27
2019-01-16T04:59:30.041Z,1003.30
2019-01-16T05:00:30.287Z,1003.25
2019-01-16T05:01:30.325Z,1003.27
2019-01-16T05:02:30.518Z,1003.17
2019-01-16T05:03:30.643Z,1003.21
2019-01-16T05:04:30.779Z,1003.15
2019-01-16T05:05:30.942Z,1003.18
2019-01-16T05:06:31.104Z,1003.19
2019-01-16T05:07:31.328Z,1003.24
2019-01-16T05:08:31.453Z,1003.21
2019-01-16T05:09:31.547Z,1003.28
2019-01-16T05:10:31.705Z,1003.14
2019-01-16T05:11:31.877Z,1003.15
2019-01-16T05:12:32.079Z,1003.25
2019-01-16T05:13:32.183Z,1003.20
2019-01-16T05:14:32.346Z,1003.15
2019-01-16T05:15:32.513Z,1003.16
2019-01-16T05:16:32.709Z,1003.16
2019-01-16T05:17:32.813Z,1003.10
2019-01-16T05:18:32.956Z,1003.16
2019-01-16T05:19:38.559Z,1003.18
2019-01-16T05:20:34.257Z,1003.15
2019-01-16T05:21:33.398Z,1003.20
2019-01-16T05:22:33.559Z,1003.21
2019-01-16T05:23:33.709Z,1003.19
2019-01-16T05:24:33.897Z,1003.17
2019-01-16T05:25:34.091Z,1003.16
2019-01-16T05:26:34.184Z,1003.20
2019-01-16T05:27:34.325Z,1003.26
2019-01-16T05:28:34.460Z,1003.14
2019-01-16T05:29:34.631Z,1003.23
2019-01-16T05:30:34.806Z,1003.28
2019-01-16T05:31:35.702Z,1003.24
2019-01-16T05:32:35.123Z,1003.26
2019-01-16T05:33:35.347Z,1003.24
2019-01-16T05:34:35.395Z,1003.36
2019-01-16T05:35:35.566Z,1003.32
2019-01-16T05:36:35.712Z,1003.25
2019-01-16T05:37:35.871Z,1003.32
2019-01-16T05:38:35.986Z,1003.34
2019-01-16T05:39:36.143Z,1003.25
2019-01-16T05:40:36.344Z,1003.38
2019-01-16T05:41:36.699Z,1003.31
2019-01-16T05:42:36.634Z,1003.39
2019-01-16T05:43:36.755Z,1003.31
2019-01-16T05:44:36.926Z,1003.35
2019-01-16T05:45:37.117Z,1003.42
2019-01-16T05:46:37.254Z,1003.33
2019-01-16T05:47:37.421Z,1003.34
2019-01-16T05:48:37.554Z,1003.42
2019-01-16T05:49:37.776Z,1003.46
2019-01-16T05:50:37.861Z,1003.35
2019-01-16T05:51:38.027Z,1003.34
2019-01-16T05:52:38.190Z,1003.33
2019-01-16T05:53:38.324Z,1003.41
2019-01-16T05:54:38.479Z,1003.34
2019-01-16T05:55:38.651Z,1003.39
2019-01-16T05:56:38.808Z,1003.32
2019-01-16T05:57:39.001Z,1003.33
2019-01-16T05:58:39.098Z,1003.36
2019-01-16T05:59:39.233Z,1003.34
2019-01-16T06:00:39.412Z,1003.40
2019-01-16T06:01:39.563Z,1003.42
2019-01-16T06:02:39.719Z,1003.41
2019-01-16T06:03:39.868Z,1003.39
2019-01-16T06:04:40.029Z,1003.47
2019-01-16T06:05:40.217Z,1003.46
2019-01-16T06:06:40.438Z,1003.47
2019-01-16T06:07:40.484Z,1003.40
2019-01-16T06:08:40.655Z,1003.55
2019-01-16T06:09:40.809Z,1003.45
2019-01-16T06:10:40.977Z,1003.45
2019-01-16T06:11:41.130Z,1003.40
2019-01-16T06:12:41.251Z,1003.39
2019-01-16T06:13:41.426Z,1003.40
2019-01-16T06:14:41.725Z,1003.44
2019-01-16T06:15:41.762Z,1003.45
2019-01-16T06:16:41.895Z,1003.41
2019-01-16T06:17:42.041Z,1003.37
2019-01-16T06:18:42.239Z,1003.33
2019-01-16T06:19:42.390Z,1003.48
2019-01-16T06:20:42.563Z,1003.36
2019-01-16T06:21:42.703Z,1003.45
2019-01-16T06:22:42.922Z,1003.44
2019-01-16T06:23:43.011Z,1003.37
2019-01-16T06:24:43.176Z,1003.31
2019-01-16T06:25:43.342Z,1003.40
2019-01-16T06:26:43.485Z,1003.37
2019-01-16T06:27:43.630Z,1003.28
2019-01-16T06:28:43.803Z,1003.34
2019-01-16T06:29:43.940Z,1003.33
2019-01-16T06:30:44.203Z,1003.34
2019-01-16T06:31:44.227Z,1003.31
2019-01-16T06:32:44.387Z,1003.35
2019-01-16T06:33:44.562Z,1003.39
2019-01-16T06:34:44.704Z,1003.39
2019-01-16T06:35:44.853Z,1003.36
2019-01-16T06:36:44.998Z,1003.36
2019-01-16T06:37:45.144Z,1003.43
2019-01-16T06:38:45.389Z,1003.40
2019-01-16T06:39:45.501Z,1003.47
2019-01-16T06:40:45.623Z,1003.41
2019-01-16T06:41:45.780Z,1003.43
2019-01-16T06:42:45.934Z,1003.47
2019-01-16T06:43:46.109Z,1003.41
2019-01-16T06:44:46.297Z,1003.37
2019-01-16T06:45:46.415Z,1003.41
2019-01-16T06:46:46.563Z,1003.36
2019-01-16T06:47:46.810Z,1003.38
2019-01-16T06:48:46.871Z,1003.40
2019-01-16T06:49:47.060Z,1003.35
2019-01-16T06:50:47.182Z,1003.40
2019-01-16T06:51:47.300Z,1003.39
2019-01-16T06:52:47.468Z,1003.40
2019-01-16T06:53:47.636Z,1003.40
2019-01-16T06:54:47.781Z,1003.46
2019-01-16T06:55:48.085Z,1003.42
2019-01-16T06:56:48.060Z,1003.47
2019-01-16T06:57:48.231Z,1003.51
2019-01-16T06:58:48.404Z,1003.47
2019-01-16T06:59:48.543Z,1003.51
2019-01-16T07:00:48.725Z,1003.46
2019-01-16T07:01:48.850Z,1003.48
2019-01-16T07:02:48.989Z,1003.47
2019-01-16T07:03:49.230Z,1003.50
2019-01-16T07:04:49.293Z,1003.51
2019-01-16T07:05:49.469Z,1003.43
2019-01-16T07:06:49.604Z,1003.41
2019-01-16T07:07:49.746Z,1003.50
2019-01-16T07:08:49.930Z,1003.50
2019-01-16T07:09:50.282Z,1003.48
2019-01-16T07:10:50.234Z,1003.49
2019-01-16T07:11:50.409Z,1003.49
2019-01-16T07:12:50.507Z,1003.45
2019-01-16T07:13:50.667Z,1003.48
2019-01-16T07:14:50.800Z,1003.47
2019-01-16T07:15:50.985Z,1003.46
2019-01-16T07:16:51.139Z,1003.45
2019-01-16T07:17:51.298Z,1003.50
2019-01-16T07:18:51.467Z,1003.49
2019-01-16T07:19:51.630Z,1003.48
2019-01-16T07:20:51.783Z,1003.53
2019-01-16T07:21:51.922Z,1003.58
2019-01-16T07:22:56.449Z,1003.57
2019-01-16T07:23:52.249Z,1003.58
2019-01-16T07:24:54.388Z,1003.60
2019-01-16T07:25:52.540Z,1003.58
2019-01-16T07:26:52.710Z,1003.57
2019-01-16T07:27:52.852Z,1003.58
2019-01-16T07:28:53.160Z,1003.49
2019-01-16T07:29:53.133Z,1003.53
2019-01-16T07:30:53.317Z,1003.56
2019-01-16T07:31:53.473Z,1003.60
2019-01-16T07:32:53.605Z,1003.65
2019-01-16T07:33:53.781Z,1003.61
2019-01-16T07:34:53.912Z,1003.60
2019-01-16T07:35:54.088Z,1003.59
2019-01-16T07:36:54.358Z,1003.60
2019-01-16T07:37:54.369Z,1003.61
2019-01-16T07:38:54.552Z,1003.65
2019-01-16T07:39:54.679Z,1003.60
2019-01-16T07:40:54.834Z,1003.61
2019-01-16T07:41:54.985Z,1003.58
2019-01-16T07:42:55.158Z,1003.58
2019-01-16T07:43:55.308Z,1003.57
2019-01-16T07:44:55.478Z,1003.59
2019-01-16T07:45:55.597Z,1003.59
2019-01-16T07:46:55.741Z,1003.55
2019-01-16T07:47:55.878Z,1003.60
2019-01-16T07:48:56.064Z,1003.65
2019-01-16T07:49:56.202Z,1003.62
2019-01-16T07:50:56.373Z,1003.59
2019-01-16T07:51:56.527Z,1003.61
2019-01-16T07:52:56.696Z,1003.62
2019-01-16T07:53:56.809Z,1003.61
2019-01-16T07:54:56.972Z,1003.62
2019-01-16T07:55:57.147Z,1003.57
2019-01-16T07:56:57.303Z,1003.67
2019-01-16T07:57:57.443Z,1003.60
2019-01-16T07:58:57.613Z,1003.62
2019-01-16T07:59:57.729Z,1003.60
2019-01-16T08:00:57.931Z,1003.60
2019-01-16T08:01:58.188Z,1003.60
2019-01-16T08:02:59.716Z,1003.61
2019-01-16T08:03:58.390Z,1003.65
2019-01-16T08:04:58.527Z,1003.58
2019-01-16T08:05:58.704Z,1003.64
2019-01-16T08:06:58.867Z,1003.61
2019-01-16T08:07:59.007Z,1003.62
2019-01-16T08:08:59.177Z,1003.60
2019-01-16T08:09:59.429Z,1003.62
2019-01-16T08:10:59.475Z,1003.62
2019-01-16T08:11:59.624Z,1003.59
2019-01-16T08:12:59.763Z,1003.70
2019-01-16T08:13:59.940Z,1003.61
2019-01-16T08:15:00.066Z,1003.56
2019-01-16T08:16:00.257Z,1003.62
2019-01-16T08:17:00.433Z,1003.64
2019-01-16T08:18:00.643Z,1003.60
2019-01-16T08:19:00.699Z,1003.60
2019-01-16T08:20:00.864Z,1003.56
2019-01-16T08:21:01.003Z,1003.59
2019-01-16T08:22:01.179Z,1003.56
2019-01-16T08:23:01.309Z,1003.63
2019-01-16T08:24:01.471Z,1003.52
2019-01-16T08:25:01.636Z,1003.59
2019-01-16T08:26:01.840Z,1003.58
2019-01-16T08:27:01.954Z,1003.56
2019-01-16T08:28:02.110Z,1003.56
2019-01-16T08:29:02.267Z,1003.61
2019-01-16T08:30:02.433Z,1003.57
2019-01-16T08:31:02.595Z,1003.53
2019-01-16T08:32:02.737Z,1003.54
2019-01-16T08:33:02.859Z,1003.57
2019-01-16T08:34:03.050Z,1003.55
2019-01-16T08:35:03.231Z,1003.56
2019-01-16T08:36:03.346Z,1003.56
2019-01-16T08:37:03.652Z,1003.47
2019-01-16T08:38:03.630Z,1003.59
2019-01-16T08:39:03.797Z,1003.57
2019-01-16T08:40:03.969Z,1003.63
2019-01-16T08:41:04.142Z,1003.62
2019-01-16T08:42:04.323Z,1003.52
2019-01-16T08:43:04.541Z,1003.50
2019-01-16T08:44:04.572Z,1003.58
2019-01-16T08:45:04.740Z,1003.57
2019-01-16T08:46:04.888Z,1003.56
2019-01-16T08:47:05.278Z,1003.57
2019-01-16T08:48:05.173Z,1003.48
2019-01-16T08:49:05.332Z,1003.51
2019-01-16T08:50:05.502Z,1003.55
2019-01-16T08:51:05.719Z,1003.49
2019-01-16T08:52:05.831Z,1003.49
2019-01-16T08:53:05.948Z,1003.51
2019-01-16T08:54:06.105Z,1003.49
2019-01-16T08:55:06.291Z,1003.53
2019-01-16T08:56:06.427Z,1003.47
2019-01-16T08:57:06.623Z,1003.56
2019-01-16T08:58:06.751Z,1003.55
2019-01-16T08:59:06.963Z,1003.56
2019-01-16T09:00:07.034Z,1003.54
2019-01-16T09:01:07.202Z,1003.58
2019-01-16T09:02:07.369Z,1003.53
2019-01-16T09:03:07.965Z,1003.52
2019-01-16T09:04:07.657Z,1003.54
2019-01-16T09:05:07.831Z,1003.56
2019-01-16T09:06:07.950Z,1003.57
2019-01-16T09:07:08.202Z,1003.56
2019-01-16T09:08:08.280Z,1003.55
2019-01-16T09:09:08.410Z,1003.57
2019-01-16T09:10:08.580Z,1003.61
2019-01-16T09:11:08.707Z,1003.58
2019-01-16T09:12:08.884Z,1003.57
2019-01-16T09:13:09.040Z,1003.59
2019-01-16T09:14:09.188Z,1003.54
2019-01-16T09:15:09.432Z,1003.58
2019-01-16T09:16:09.532Z,1003.56
2019-01-16T09:17:09.657Z,1003.55
2019-01-16T09:18:09.804Z,1003.56
2019-01-16T09:19:09.959Z,1003.51
2019-01-16T09:20:10.130Z,1003.47
2019-01-16T09:21:10.261Z,1003.49
2019-01-16T09:22:10.433Z,1003.52
2019-01-16T09:23:10.559Z,1003.50
2019-01-16T09:24:10.820Z,1003.53
2019-01-16T09:25:10.891Z,1003.52
2019-01-16T09:26:11.022Z,1003.54
2019-01-16T09:27:11.178Z,1003.52
2019-01-16T09:28:11.348Z,1003.52
2019-01-16T09:29:11.526Z,1003.49
2019-01-16T09:30:11.688Z,1003.58
2019-01-16T09:31:11.832Z,1003.56
2019-01-16T09:32:12.107Z,1003.60
2019-01-16T09:33:12.126Z,1003.57
2019-01-16T09:34:12.313Z,1003.61
2019-01-16T09:35:12.469Z,1003.55
2019-01-16T09:36:12.607Z,1003.63
2019-01-16T09:37:12.760Z,1003.54
2019-01-16T09:38:12.930Z,1003.54
2019-01-16T09:39:13.068Z,1003.55
2019-01-16T09:40:13.292Z,1003.60
2019-01-16T09:41:13.356Z,1003.51
2019-01-16T09:42:13.521Z,1003.53
2019-01-16T09:43:13.695Z,1003.51
2019-01-16T09:44:13.845Z,1003.54
2019-01-16T09:45:13.989Z,1003.59
2019-01-16T09:46:14.132Z,1003.58
2019-01-16T09:47:14.315Z,1003.57
2019-01-16T09:48:14.729Z,1003.58
2019-01-16T09:49:14.606Z,1003.59
2019-01-16T09:50:14.770Z,1003.61
2019-01-16T09:51:14.887Z,1003.61
2019-01-16T09:52:15.056Z,1003.56
2019-01-16T09:53:15.231Z,1003.59
2019-01-16T09:54:15.378Z,1003.60
2019-01-16T09:55:15.528Z,1003.55
2019-01-16T09:56:15.682Z,1003.56
2019-01-16T09:57:15.847Z,1003.54
2019-01-16T09:58:15.996Z,1003.56
2019-01-16T09:59:16.140Z,1003.48
2019-01-16T10:00:16.298Z,1003.52
2019-01-16T10:01:16.427Z,1003.52
2019-01-16T10:02:16.567Z,1003.54
2019-01-16T10:03:16.758Z,1003.51
2019-01-16T10:04:16.913Z,1003.48
2019-01-16T10:05:17.167Z,1003.52
2019-01-16T10:06:17.179Z,1003.46
2019-01-16T10:07:17.348Z,1003.46
2019-01-16T10:08:17.531Z,1003.49
2019-01-16T10:09:17.690Z,1003.43
2019-01-16T10:10:17.841Z,1003.46
2019-01-16T10:11:17.978Z,1003.41
2019-01-16T10:12:18.116Z,1003.47
2019-01-16T10:13:18.387Z,1003.41
2019-01-16T10:14:18.439Z,1003.38
2019-01-16T10:15:18.594Z,1003.35
2019-01-16T10:16:18.728Z,1003.34
2019-01-16T10:17:18.884Z,1003.31
2019-01-16T10:18:19.038Z,1003.33
2019-01-16T10:19:19.211Z,1003.34
2019-01-16T10:20:19.382Z,1003.35
2019-01-16T10:21:19.567Z,1003.31
2019-01-16T10:22:19.648Z,1003.32
2019-01-16T10:23:20.044Z,1003.35
2019-01-16T10:24:19.961Z,1003.33
2019-01-16T10:25:20.108Z,1003.31
2019-01-16T10:26:20.259Z,1003.28
2019-01-16T10:27:20.416Z,1003.20
2019-01-16T10:28:20.592Z,1003.19
2019-01-16T10:29:20.786Z,1003.19
2019-01-16T10:30:20.914Z,1003.19
2019-01-16T10:31:21.025Z,1003.17
2019-01-16T10:32:21.184Z,1003.19
2019-01-16T10:33:21.339Z,1003.24
2019-01-16T10:34:21.499Z,1003.19
2019-01-16T10:35:21.653Z,1003.17
2019-01-16T10:36:21.783Z,1003.27
2019-01-16T10:37:21.967Z,1003.20
2019-01-16T10:38:22.242Z,1003.16
2019-01-16T10:39:22.266Z,1003.15
2019-01-16T10:40:22.393Z,1003.13
2019-01-16T10:41:22.582Z,1003.16
2019-01-16T10:42:22.753Z,1003.12
2019-01-16T10:43:22.919Z,1003.11
2019-01-16T10:44:23.062Z,1003.09
2019-01-16T10:45:23.205Z,1003.12
2019-01-16T10:46:23.500Z,1003.06
2019-01-16T10:47:23.535Z,1003.05
2019-01-16T10:48:23.704Z,1003.06
2019-01-16T10:49:23.857Z,1003.07
2019-01-16T10:50:23.995Z,1003.01
2019-01-16T10:51:24.160Z,1003.04
2019-01-16T10:52:24.285Z,1002.97
2019-01-16T10:53:24.466Z,1003.00
2019-01-16T10:54:24.688Z,1003.01
2019-01-16T10:55:24.741Z,1002.90
2019-01-16T10:56:24.910Z,1002.92
2019-01-16T10:57:25.040Z,1002.90
2019-01-16T10:58:25.221Z,1002.90
2019-01-16T10:59:25.391Z,1002.85
2019-01-16T11:00:25.530Z,1002.88
2019-01-16T11:01:25.695Z,1002.86
2019-01-16T11:02:25.871Z,1002.90
2019-01-16T11:03:25.963Z,1002.85
2019-01-16T11:04:26.145Z,1002.93
2019-01-16T11:05:26.274Z,1002.83
2019-01-16T11:06:26.453Z,1002.81
2019-01-16T11:07:26.596Z,1002.84
2019-01-16T11:08:26.766Z,1002.81
2019-01-16T11:09:26.902Z,1002.79
2019-01-16T11:10:27.107Z,1002.87
2019-01-16T11:11:27.317Z,1002.82
2019-01-16T11:12:27.377Z,1002.80
2019-01-16T11:13:27.577Z,1002.82
2019-01-16T11:14:27.674Z,1002.80
2019-01-16T11:15:27.853Z,1002.76
2019-01-16T11:16:28.019Z,1002.78
2019-01-16T11:17:28.160Z,1002.72
2019-01-16T11:18:28.334Z,1002.72
2019-01-16T11:19:28.565Z,1002.72
2019-01-16T11:20:28.636Z,1002.73
2019-01-16T11:21:28.786Z,1002.72
2019-01-16T11:22:28.920Z,1002.70
2019-01-16T11:23:29.085Z,1002.72
2019-01-16T11:24:29.223Z,1002.67
2019-01-16T11:25:29.378Z,1002.59
2019-01-16T11:26:29.556Z,1002.63
2019-01-16T11:27:29.804Z,1002.61
2019-01-16T11:28:29.865Z,1002.60
2019-01-16T11:29:30.003Z,1002.61
2019-01-16T11:30:30.161Z,1002.55
2019-01-16T11:31:30.326Z,1002.50
2019-01-16T11:32:30.482Z,1002.48
2019-01-16T11:33:30.649Z,1002.53
2019-01-16T11:34:30.792Z,1002.54
2019-01-16T11:35:30.990Z,1002.47
2019-01-16T11:36:31.074Z,1002.47
2019-01-16T11:37:31.235Z,1002.42
2019-01-16T11:38:31.421Z,1002.45
2019-01-16T11:39:31.557Z,1002.46
2019-01-16T11:40:31.727Z,1002.40
2019-01-16T11:41:31.878Z,1002.43
2019-01-16T11:42:32.013Z,1002.43
2019-01-16T11:43:32.191Z,1002.40
2019-01-16T11:44:32.334Z,1002.46
2019-01-16T11:45:32.518Z,1002.43
2019-01-16T11:46:32.668Z,1002.43
2019-01-16T11:47:32.804Z,1002.45
2019-01-16T11:48:32.943Z,1002.36
2019-01-16T11:49:33.124Z,1002.41
2019-01-16T11:50:33.311Z,1002.43
2019-01-16T11:51:33.804Z,1002.33
2019-01-16T11:52:33.688Z,1002.38
2019-01-16T11:53:33.738Z,1002.35
2019-01-16T11:54:33.918Z,1002.31
2019-01-16T11:55:34.072Z,1002.33
2019-01-16T11:56:34.218Z,1002.33
2019-01-16T11:57:34.363Z,1002.31
2019-01-16T11:58:34.520Z,1002.35
2019-01-16T11:59:34.672Z,1002.34
2019-01-16T12:00:34.940Z,1002.32
2019-01-16T12:01:34.990Z,1002.33
2019-01-16T12:02:38.489Z,1002.27
2019-01-16T12:03:35.282Z,1002.34
2019-01-16T12:04:35.444Z,1002.29
2019-01-16T12:05:35.606Z,1002.31
2019-01-16T12:06:35.780Z,1002.29
2019-01-16T12:07:35.918Z,1002.36